createdAt,value
2018-12-19T00:00:08.684Z,2.67
2018-12-19T00:02:43.092Z,2.63
2018-12-19T00:05:17.468Z,2.20
2018-12-19T00:07:51.975Z,2.87
2018-12-19T00:10:26.799Z,2.40
2018-12-19T00:13:01.365Z,2.37
2018-12-19T00:15:35.703Z,2.60
2018-12-19T00:18:10.564Z,2.70
2018-12-19T00:20:45.134Z,2.70
2018-12-19T00:23:19.629Z,2.33
2018-12-19T00:25:54.170Z,2.30
2018-12-19T00:28:29.081Z,2.83
2018-12-19T00:31:03.513Z,2.40
2018-12-19T00:33:37.974Z,2.40
2018-12-19T00:36:12.302Z,2.53
2018-12-19T00:38:47.381Z,2.30
2018-12-19T00:41:22.870Z,1.77
2018-12-19T00:43:57.644Z,2.40
2018-12-19T00:46:32.030Z,2.50
2018-12-19T00:49:06.497Z,2.70
2018-12-19T00:51:41.241Z,2.50
2018-12-19T00:54:16.348Z,2.93
2018-12-19T00:56:50.914Z,2.70
2018-12-19T00:59:26.117Z,2.77
2018-12-19T01:02:00.434Z,2.70
2018-12-19T01:04:34.839Z,2.30
2018-12-19T01:07:09.167Z,2.17
2018-12-19T01:09:44.064Z,2.20
2018-12-19T01:12:18.468Z,2.93
2018-12-19T01:14:52.852Z,2.50
2018-12-19T01:17:27.477Z,2.60
2018-12-19T01:20:01.831Z,2.60
2018-12-19T01:22:36.465Z,1.83
2018-12-19T01:25:11.571Z,2.40
2018-12-19T01:27:45.903Z,2.50
2018-12-19T01:30:20.650Z,3.10
2018-12-19T01:32:55.735Z,2.50
2018-12-19T01:35:30.383Z,2.47
2018-12-19T01:38:04.793Z,2.87
2018-12-19T01:40:39.009Z,2.77
2018-12-19T01:43:13.626Z,2.70
2018-12-19T01:45:48.165Z,2.70
2018-12-19T01:48:22.461Z,3.40
2018-12-19T01:50:56.702Z,3.00
2018-12-19T01:53:30.919Z,2.70
2018-12-19T01:56:05.295Z,2.50
2018-12-19T01:58:39.647Z,2.53
2018-12-19T02:01:14.283Z,2.80
2018-12-19T02:03:49.181Z,2.70
2018-12-19T02:06:23.741Z,2.33
2018-12-19T02:08:58.150Z,3.00
2018-12-19T02:11:32.964Z,3.67
2018-12-19T02:14:07.193Z,2.53
2018-12-19T02:16:42.003Z,3.20
2018-12-19T02:19:16.861Z,3.27
2018-12-19T02:21:51.315Z,2.90
2018-12-19T02:24:26.304Z,3.30
2018-12-19T02:27:00.829Z,3.17
2018-12-19T02:29:35.641Z,2.50
2018-12-19T02:32:10.021Z,2.70
2018-12-19T02:34:44.349Z,2.70
2018-12-19T02:37:18.815Z,2.77
2018-12-19T02:39:53.725Z,2.90
2018-12-19T02:42:28.171Z,2.97
2018-12-19T02:45:02.591Z,2.90
2018-12-19T02:47:37.237Z,3.10
2018-12-19T02:50:12.347Z,3.40
2018-12-19T02:52:46.718Z,3.33
2018-12-19T02:55:21.487Z,3.80
2018-12-19T02:57:56.250Z,3.00
2018-12-19T03:00:30.857Z,2.93
2018-12-19T03:03:05.221Z,3.30
2018-12-19T03:05:39.601Z,3.70
2018-12-19T03:08:14.358Z,3.13
2018-12-19T03:10:48.969Z,3.30
2018-12-19T03:13:23.815Z,2.47
2018-12-19T03:15:58.216Z,3.33
2018-12-19T03:18:32.705Z,3.23
2018-12-19T03:21:07.053Z,3.33
2018-12-19T03:23:41.873Z,3.30
2018-12-19T03:26:16.396Z,3.43
2018-12-19T03:28:51.725Z,4.20
2018-12-19T03:31:26.037Z,3.23
2018-12-19T03:34:00.784Z,3.30
2018-12-19T03:36:35.093Z,3.70
2018-12-19T03:39:09.654Z,3.60
2018-12-19T03:41:44.040Z,3.20
2018-12-19T03:44:18.905Z,3.43
2018-12-19T03:46:53.623Z,3.50
2018-12-19T03:49:27.886Z,3.47
2018-12-19T03:52:02.579Z,3.10
2018-12-19T03:54:37.452Z,3.63
2018-12-19T03:57:12.302Z,3.77
2018-12-19T03:59:46.622Z,4.10
2018-12-19T04:02:21.543Z,3.47
2018-12-19T04:04:56.079Z,3.10
2018-12-19T04:07:30.492Z,3.97
2018-12-19T04:10:05.343Z,3.30
2018-12-19T04:12:39.568Z,3.77
2018-12-19T04:15:14.095Z,4.13
2018-12-19T04:17:48.493Z,3.47
2018-12-19T04:20:22.710Z,3.67
2018-12-19T04:22:57.022Z,3.10
2018-12-19T04:25:32.245Z,3.43
2018-12-19T04:28:06.614Z,3.40
2018-12-19T04:30:40.977Z,3.07
2018-12-19T04:33:15.422Z,3.20
2018-12-19T04:35:50.083Z,3.00
2018-12-19T04:38:24.816Z,3.43
2018-12-19T04:40:59.087Z,2.97
2018-12-19T04:43:33.476Z,3.23
2018-12-19T04:46:07.835Z,3.20
2018-12-19T04:48:42.590Z,3.07
2018-12-19T04:51:17.009Z,3.43
2018-12-19T04:53:51.973Z,2.93
2018-12-19T04:56:26.310Z,2.67
2018-12-19T04:59:00.666Z,2.90
2018-12-19T05:01:35.624Z,2.60
2018-12-19T05:04:09.946Z,3.10
2018-12-19T05:06:44.299Z,2.63
2018-12-19T05:09:18.617Z,2.50
2018-12-19T05:11:53.006Z,2.90
2018-12-19T05:14:27.660Z,3.27
2018-12-19T05:17:02.124Z,3.40
2018-12-19T07:17:17.062Z,3.20
2018-12-19T07:19:51.469Z,4.00
2018-12-19T07:22:25.727Z,3.60
2018-12-19T07:25:00.519Z,2.87
2018-12-19T07:27:35.342Z,3.13
2018-12-19T07:30:09.544Z,3.27
2018-12-19T07:32:43.868Z,3.43
2018-12-19T07:35:18.353Z,3.20
2018-12-19T07:37:52.719Z,3.50
2018-12-19T07:40:27.241Z,3.03
2018-12-19T07:43:01.864Z,2.87
2018-12-19T07:45:36.403Z,3.57
2018-12-19T07:48:10.787Z,3.17
2018-12-19T07:50:45.154Z,4.47
2018-12-19T07:53:19.657Z,4.00
2018-12-19T07:55:55.283Z,4.77
2018-12-19T07:58:29.701Z,4.23
2018-12-19T08:01:04.245Z,4.30
2018-12-19T08:03:39.123Z,3.87
2018-12-19T08:06:13.369Z,3.80
2018-12-19T08:20:51.209Z,4.17
2018-12-19T08:23:25.821Z,3.60
2018-12-19T08:26:00.117Z,3.43
2018-12-19T08:28:35.133Z,3.20
2018-12-19T08:31:10.500Z,3.40
2018-12-19T08:33:44.784Z,2.80
2018-12-19T08:36:19.359Z,3.40
2018-12-19T08:38:53.714Z,3.70
2018-12-19T08:41:28.586Z,3.40
2018-12-19T08:44:02.972Z,3.90
2018-12-19T08:46:37.752Z,3.47
2018-12-19T08:49:12.735Z,3.60
2018-12-19T08:51:47.084Z,3.20
2018-12-19T08:54:21.586Z,3.50
2018-12-19T08:56:56.403Z,3.80
2018-12-19T08:59:30.773Z,3.20
2018-12-19T09:02:05.130Z,3.80
2018-12-19T09:04:39.392Z,4.10
2018-12-19T09:07:14.469Z,2.90
2018-12-19T09:09:49.092Z,3.70
2018-12-19T09:12:23.372Z,4.40
2018-12-19T09:14:57.712Z,4.00
2018-12-19T09:17:31.978Z,4.30
2018-12-19T09:20:06.807Z,4.10
2018-12-19T09:22:41.262Z,14.73
2018-12-19T09:25:15.790Z,15.60
2018-12-19T09:27:50.027Z,14.90
2018-12-19T09:30:25.036Z,17.03
2018-12-19T09:32:59.876Z,17.00
2018-12-19T09:35:34.485Z,15.20
2018-12-19T09:38:08.790Z,14.10
2018-12-19T09:40:43.263Z,14.03
2018-12-19T09:43:18.973Z,13.67
2018-12-19T09:45:53.560Z,11.10
2018-12-19T09:48:28.017Z,11.77
2018-12-19T09:51:02.977Z,10.57
2018-12-19T09:53:37.773Z,10.23
2018-12-19T09:56:12.136Z,10.13
2018-12-19T09:58:46.698Z,9.00
2018-12-19T10:01:21.367Z,8.20
2018-12-19T10:03:56.174Z,8.27
2018-12-19T10:06:31.216Z,7.43
2018-12-19T10:09:08.893Z,7.40
2018-12-19T10:11:43.948Z,6.90
2018-12-19T10:14:18.778Z,7.40
2018-12-19T10:16:53.605Z,6.80
2018-12-19T10:19:28.445Z,5.67
2018-12-19T10:22:02.760Z,6.10
2018-12-19T10:24:43.374Z,6.33
2018-12-19T10:27:19.705Z,5.13
2018-12-19T10:29:54.544Z,5.33
2018-12-19T10:32:30.989Z,5.70
2018-12-19T10:35:07.132Z,5.70
2018-12-19T10:37:41.675Z,6.40
2018-12-19T10:40:16.323Z,6.10
2018-12-19T10:42:50.621Z,5.40
2018-12-19T10:45:25.349Z,4.87
2018-12-19T10:48:00.139Z,5.40
2018-12-19T10:50:34.836Z,5.10
2018-12-19T10:53:09.375Z,5.43
2018-12-19T10:55:44.788Z,4.50
2018-12-19T10:58:19.315Z,4.30
2018-12-19T11:00:59.603Z,4.77
2018-12-19T11:03:34.399Z,4.60
2018-12-19T11:06:09.215Z,4.30
2018-12-19T11:08:44.423Z,4.13
2018-12-19T11:11:19.162Z,4.03
2018-12-19T11:13:54.057Z,4.30
2018-12-19T11:16:28.526Z,4.10
2018-12-19T11:19:03.357Z,3.80
2018-12-19T11:21:37.665Z,3.97
2018-12-19T11:24:12.241Z,4.13
2018-12-19T11:26:47.407Z,4.83
2018-12-19T11:29:22.067Z,3.70
2018-12-19T11:31:56.546Z,3.17
2018-12-19T11:34:30.923Z,3.20
2018-12-19T11:37:06.039Z,3.90
2018-12-19T11:39:40.791Z,3.03
2018-12-19T11:42:15.564Z,3.40
2018-12-19T11:44:49.913Z,4.63
2018-12-19T11:47:24.455Z,3.00
2018-12-19T11:49:58.881Z,3.10
2018-12-19T11:52:33.317Z,3.63
2018-12-19T11:55:07.989Z,4.40
2018-12-19T11:57:42.468Z,2.87
2018-12-19T12:00:17.574Z,3.40
2018-12-19T12:02:52.111Z,3.60
2018-12-19T12:05:26.918Z,2.93
2018-12-19T12:08:01.450Z,3.40
2018-12-19T12:10:36.893Z,3.53
2018-12-19T12:13:11.565Z,3.37
2018-12-19T12:15:45.954Z,3.30
2018-12-19T12:18:20.762Z,3.20
2018-12-19T12:20:55.022Z,2.80
2018-12-19T12:23:29.631Z,3.10
2018-12-19T12:26:04.746Z,3.33
2018-12-19T12:28:39.365Z,3.20
2018-12-19T12:31:13.683Z,3.90
2018-12-19T12:33:48.302Z,2.90
2018-12-19T12:36:22.681Z,3.47
2018-12-19T12:38:57.369Z,3.30
2018-12-19T12:41:31.775Z,4.20
2018-12-19T12:44:06.713Z,3.10
2018-12-19T12:46:41.066Z,3.00
2018-12-19T12:49:15.493Z,3.20
2018-12-19T12:51:49.898Z,3.50
2018-12-19T12:54:24.549Z,2.60
2018-12-19T12:56:59.272Z,3.00
2018-12-19T12:59:34.679Z,2.70
2018-12-19T13:02:09.137Z,2.77
2018-12-19T13:04:43.871Z,3.50
2018-12-19T13:07:18.225Z,3.30
2018-12-19T13:09:52.690Z,2.90
2018-12-19T13:12:27.355Z,3.30
2018-12-19T13:15:02.421Z,2.53
2018-12-19T13:17:36.946Z,3.27
2018-12-19T13:20:11.545Z,3.07
2018-12-19T13:22:46.361Z,2.80
2018-12-19T13:25:21.547Z,2.73
2018-12-19T13:27:56.370Z,2.53
2018-12-19T13:30:30.745Z,2.53
2018-12-19T13:33:05.115Z,2.40
2018-12-19T13:35:39.588Z,3.00
2018-12-19T13:38:14.041Z,2.30
2018-12-19T13:40:48.377Z,3.10
2018-12-19T13:43:23.187Z,2.77
2018-12-19T13:45:58.182Z,2.93
2018-12-19T13:48:33.062Z,2.53
2018-12-19T13:51:07.551Z,3.30
2018-12-19T13:53:42.197Z,2.70
2018-12-19T13:56:16.745Z,2.60
2018-12-19T13:58:52.000Z,2.20
2018-12-19T14:01:27.204Z,2.67
2018-12-19T14:04:01.438Z,2.17
2018-12-19T14:06:36.062Z,2.30
2018-12-19T14:09:10.488Z,2.77
2018-12-19T14:11:45.411Z,2.40
2018-12-19T14:14:20.115Z,2.73
2018-12-19T14:16:54.966Z,2.50
2018-12-19T14:19:29.500Z,2.30
2018-12-19T14:22:03.852Z,2.50
2018-12-19T14:24:39.028Z,2.63
2018-12-19T14:27:13.492Z,2.23
2018-12-19T14:29:47.748Z,2.50
2018-12-19T14:32:22.201Z,2.37
2018-12-19T14:34:56.544Z,2.47
2018-12-19T14:37:30.913Z,2.30
2018-12-19T14:40:05.655Z,2.87
2018-12-19T14:42:40.017Z,2.53
2018-12-19T14:45:15.174Z,2.30
2018-12-19T14:47:50.971Z,1.90
2018-12-19T14:50:26.013Z,3.00
2018-12-19T14:53:00.463Z,2.70
2018-12-19T14:55:34.967Z,2.53
2018-12-19T14:58:09.896Z,2.20
2018-12-19T15:00:44.630Z,2.03
2018-12-19T15:03:19.033Z,2.83
2018-12-19T15:05:53.384Z,2.13
2018-12-19T15:08:27.976Z,2.37
2018-12-19T15:11:02.812Z,3.10
2018-12-19T15:13:37.548Z,2.10
2018-12-19T15:16:12.379Z,2.60
2018-12-19T15:18:46.609Z,4.10
2018-12-19T15:21:21.112Z,2.60
2018-12-19T15:23:55.518Z,2.40
2018-12-19T15:26:30.460Z,2.27
2018-12-19T15:29:04.804Z,2.37
2018-12-19T15:31:39.166Z,2.57
2018-12-19T15:34:13.782Z,3.70
2018-12-19T15:36:48.032Z,2.90
2018-12-19T15:39:23.143Z,2.37
2018-12-19T15:41:57.944Z,1.73
2018-12-19T15:44:32.392Z,2.33
2018-12-19T15:47:07.258Z,2.40
2018-12-19T15:49:41.503Z,2.30
2018-12-19T15:52:16.395Z,1.87
2018-12-19T15:54:51.230Z,2.10
2018-12-19T15:57:26.098Z,2.27
2018-12-19T16:00:00.556Z,2.40
2018-12-19T16:02:35.010Z,2.10
2018-12-19T16:05:09.325Z,2.03
2018-12-19T16:07:44.136Z,2.37
2018-12-19T16:10:18.724Z,3.00
2018-12-19T16:12:52.976Z,3.37
2018-12-19T16:15:27.932Z,2.00
2018-12-19T16:18:02.753Z,2.43
2018-12-19T16:20:37.605Z,2.70
2018-12-19T16:23:11.849Z,2.70
2018-12-19T16:25:46.649Z,2.83
2018-12-19T16:28:22.219Z,2.80
2018-12-19T16:30:56.906Z,2.57
2018-12-19T16:33:31.518Z,3.07
2018-12-19T16:36:05.996Z,2.50
2018-12-19T16:38:40.858Z,3.00
2018-12-19T16:41:15.237Z,2.70
2018-12-19T16:43:50.084Z,2.47
2018-12-19T16:46:24.331Z,2.20
2018-12-19T16:48:58.627Z,2.50
2018-12-19T16:51:33.209Z,3.00
2018-12-19T16:54:07.606Z,2.53
2018-12-19T16:56:41.962Z,2.30
2018-12-19T16:59:16.502Z,2.40
2018-12-19T17:01:50.881Z,1.90
2018-12-19T17:04:25.433Z,2.23
2018-12-19T17:07:00.528Z,3.10
2018-12-19T17:09:34.871Z,2.50
2018-12-19T17:12:09.595Z,3.03
2018-12-19T17:14:44.251Z,2.63
2018-12-19T17:17:18.718Z,2.50
2018-12-19T17:19:53.470Z,2.20
2018-12-19T17:22:27.868Z,2.47
2018-12-19T17:25:02.480Z,2.20
2018-12-19T17:27:36.751Z,2.30
2018-12-19T17:30:11.552Z,2.90
2018-12-19T17:32:45.814Z,2.30
2018-12-19T17:35:20.297Z,2.27
2018-12-19T17:37:54.939Z,2.60
2018-12-19T17:40:29.986Z,2.87
2018-12-19T17:43:04.324Z,2.93
2018-12-19T17:45:39.321Z,3.27
2018-12-19T17:48:13.565Z,2.77
2018-12-19T17:50:48.035Z,2.37
2018-12-19T17:53:22.378Z,2.60
2018-12-19T17:55:57.117Z,2.20
2018-12-19T17:58:31.518Z,2.30
2018-12-19T18:01:06.931Z,3.27
2018-12-19T18:03:41.605Z,2.33
2018-12-19T18:06:16.062Z,2.57
2018-12-19T18:08:50.975Z,2.63
2018-12-19T18:11:25.593Z,2.40
2018-12-19T18:14:00.063Z,2.97
2018-12-19T18:16:34.633Z,2.13
2018-12-19T18:19:09.242Z,2.60
2018-12-19T18:21:43.683Z,2.70
2018-12-19T18:24:17.874Z,3.00
2018-12-19T18:26:52.905Z,2.30
2018-12-19T18:29:27.202Z,2.47
2018-12-19T18:32:01.414Z,2.50
2018-12-19T18:34:36.168Z,2.40
2018-12-19T18:37:10.730Z,3.03
2018-12-19T18:39:45.302Z,2.20
2018-12-19T18:42:19.776Z,2.53
2018-12-19T18:44:54.353Z,2.10
2018-12-19T18:47:29.091Z,2.70
2018-12-19T18:50:04.557Z,3.40
2018-12-19T18:52:39.375Z,2.53
2018-12-19T18:55:13.768Z,2.73
2018-12-19T18:57:48.233Z,2.60
2018-12-19T19:00:29.547Z,2.40
2018-12-19T19:03:05.706Z,2.70
2018-12-19T19:05:40.158Z,2.30
2018-12-19T19:08:15.117Z,2.50
2018-12-19T19:10:49.528Z,2.67
2018-12-19T19:13:24.135Z,3.03
2018-12-19T19:15:58.776Z,2.43
2018-12-19T19:18:33.201Z,2.50
2018-12-19T19:21:07.745Z,2.33
2018-12-19T19:23:42.327Z,1.53
2018-12-19T19:26:17.072Z,2.90
2018-12-19T19:28:51.727Z,2.60
2018-12-19T19:31:26.223Z,2.63
2018-12-19T19:34:00.675Z,2.40
2018-12-19T19:36:35.186Z,2.80
2018-12-19T19:39:10.010Z,2.50
2018-12-19T19:41:44.880Z,2.77
2018-12-19T19:44:19.180Z,2.37
2018-12-19T19:46:53.968Z,2.30
2018-12-19T19:49:28.515Z,2.53
2018-12-19T19:52:02.828Z,2.60
2018-12-19T19:54:37.466Z,2.40
2018-12-19T19:57:12.000Z,2.57
2018-12-19T19:59:46.436Z,2.43
2018-12-19T20:02:21.058Z,2.77
2018-12-19T20:04:55.715Z,2.80
2018-12-19T20:07:30.063Z,2.80
2018-12-19T20:10:05.609Z,2.13
2018-12-19T20:12:40.152Z,3.43
2018-12-19T20:15:14.538Z,2.27
2018-12-19T20:17:49.493Z,2.57
2018-12-19T20:20:24.221Z,2.93
2018-12-19T20:22:59.061Z,2.60
2018-12-19T20:25:33.293Z,2.20
2018-12-19T20:28:07.745Z,3.20
2018-12-19T20:30:42.106Z,2.80
2018-12-19T20:33:16.560Z,2.40
2018-12-19T20:35:50.992Z,2.93
2018-12-19T20:38:25.370Z,2.27
2018-12-19T20:41:00.412Z,2.97
2018-12-19T20:43:39.979Z,3.17
2018-12-19T20:46:11.478Z,3.10
2018-12-19T20:48:46.081Z,2.70
2018-12-19T20:51:20.927Z,3.00
2018-12-19T20:53:55.908Z,2.83
2018-12-19T20:56:30.532Z,2.80
2018-12-19T20:59:04.966Z,3.10
2018-12-19T21:01:39.450Z,2.90
2018-12-19T21:04:13.962Z,2.40
2018-12-19T21:06:48.697Z,3.00
2018-12-19T21:09:23.533Z,2.80
2018-12-19T21:11:57.928Z,2.67
2018-12-19T21:14:33.192Z,2.60
2018-12-19T21:17:13.957Z,2.73
2018-12-19T21:19:48.449Z,2.70
2018-12-19T21:22:22.938Z,2.70
2018-12-19T21:24:57.436Z,3.27
2018-12-19T21:27:31.928Z,3.00
2018-12-19T21:30:07.561Z,2.60
2018-12-19T21:32:42.787Z,2.87
2018-12-19T21:35:16.995Z,2.63
2018-12-19T21:37:51.743Z,2.87
2018-12-19T21:40:26.257Z,2.60
2018-12-19T21:43:00.640Z,2.77
2018-12-19T21:45:35.480Z,2.60
2018-12-19T21:48:10.267Z,2.83
2018-12-19T21:50:44.671Z,2.13
2018-12-19T21:53:19.329Z,3.17
2018-12-19T21:55:53.595Z,4.40
2018-12-19T21:58:28.974Z,2.90
2018-12-19T22:01:03.370Z,2.90
2018-12-19T22:03:38.619Z,2.50
2018-12-19T22:06:12.832Z,2.53
2018-12-19T22:08:47.470Z,2.80
2018-12-19T22:11:22.005Z,2.40
2018-12-19T22:14:00.582Z,2.70
2018-12-19T22:16:38.609Z,2.30
2018-12-19T22:19:13.008Z,2.37
2018-12-19T22:21:47.480Z,2.43
2018-12-19T22:24:21.922Z,2.17
2018-12-19T22:26:56.291Z,2.70
2018-12-19T22:29:30.655Z,2.20
2018-12-19T22:32:05.623Z,2.50
2018-12-19T22:34:40.200Z,2.90
2018-12-19T22:37:14.452Z,2.43
2018-12-19T22:39:48.892Z,2.00
2018-12-19T22:42:23.389Z,2.50
2018-12-19T22:44:58.164Z,3.03
2018-12-19T22:47:32.375Z,3.13
2018-12-19T22:50:06.745Z,2.50
2018-12-19T22:52:41.018Z,2.33
2018-12-19T22:55:15.339Z,2.30
2018-12-19T22:57:49.587Z,2.20
2018-12-19T23:00:24.448Z,2.70
2018-12-19T23:03:07.527Z,2.07
2018-12-19T23:05:47.667Z,2.03
2018-12-19T23:08:22.058Z,2.43
2018-12-19T23:10:56.426Z,2.10
2018-12-19T23:13:31.221Z,2.27
2018-12-19T23:16:05.563Z,2.00
2018-12-19T23:18:39.863Z,2.53
2018-12-19T23:21:14.365Z,2.60
2018-12-19T23:23:49.080Z,2.23
2018-12-19T23:26:24.628Z,2.40
2018-12-19T23:29:03.072Z,1.97
2018-12-19T23:31:37.523Z,2.30
2018-12-19T23:34:11.926Z,2.27
2018-12-19T23:36:46.338Z,2.63
2018-12-19T23:39:21.258Z,2.37
2018-12-19T23:41:55.684Z,2.30
2018-12-19T23:44:32.282Z,2.57
2018-12-19T23:47:07.358Z,2.50
2018-12-19T23:49:41.821Z,2.30
2018-12-19T23:52:16.636Z,2.10
2018-12-19T23:54:51.102Z,2.33
2018-12-19T23:57:25.481Z,2.10
2018-12-19T23:59:59.748Z,2.30
